Paramaribo, Suriname

11:36 PM SRT op 02 juli 2015 (GMT -0300)
Tammenga | | Change Station
CLOSE
Current Station
Persoonlijk weerstation
Location: Paramaribo, PARAMARIBO
Geometrische hoogte: 7 ft
Nabije weerstations

Hoogte 7 ft 5.82 °N, 55.22 °W | Updated 55 seconds ago

Scattered Clouds
Licht bewolkt
77.6 °F
Voelt als 80 °F
N
0.0
Wind Variabel Wind van noord
Gusts 0.0 mijl/u

Vandaag
Hoog -- | Laag -- °F
--% Kans op neerslag
Gisteren
Hoog -- | Laag -- °F
Precip. -- inches
6:31 AM 6:58 PM
Volle maan, 99% visible
Druk 29.98 inches
Zicht 6.2 mijlen
Wolken Gering 1800 ft
Licht bewolkt 3500 ft
Warmteindex 80 °F
Dauwpunt 72 °F
Vochtigheid 83%
Neerslag inches
Dikte sneeuw Niet beschikbaar.
UV 0 van de 12
Pollen Niet beschikbaar.
Luchtkwaliteit Niet beschikbaar.
Flu Activity Niet beschikbaar.
METAR SMJP 030200Z VRB02KT 9999 FEW018CB SCT035 25/24 Q1015 NOSIG

More Conditions Fewer Conditions

Druk 29.98 inches
Zicht 6.2 mijlen
Wolken Gering 1800 ft
Licht bewolkt 3500 ft
Warmteindex 80 °F
Dauwpunt 72 °F
Vochtigheid 83%
Neerslag inches
Dikte sneeuw Niet beschikbaar.
UV 0 van de 12
Pollen Niet beschikbaar.
Luchtkwaliteit Niet beschikbaar.
Flu Activity Niet beschikbaar.
METAR SMJP 030200Z VRB02KT 9999 FEW018CB SCT035 25/24 Q1015 NOSIG

More Conditions Fewer Conditions

10-Day Weather Forecast

×

Almanac

Astronomie

Jul. 02, 2015 Opkomst Ondergang
Werkelijke tijd
Burgerlijke schemering
Nautische schemering
Astronomische schemering
Maan
Golflengte van het zichtbare licht
Daglengte
Tomorrow will be .
, % of the Moon is Illuminated

Extremen vandaag

Country Highs Country Lows

Community

WunderPhotos

Upload Photos

1,834,594 foto’s ge-upload!

WunderBlogs® & News

Nearby

Luchtkwaliteit

  Luchtkwaliteit LK-index Verontreinigende stof
Not available.

Dikte sneeuw

Station Depth Geometrische hoogte

Aardbevingen

Stad Distance Mag. Time & Date
Minimum magnitude displayed is 2.5.

Watertemperatuur langs de kust

Plaats Temperatuur

Stations

Nabije weerstations

Locatie station Temp. Gevoelstemperatuur Dauwpunt Vochtigheid Wind Precip. Hoogte Geactualiseerd Type